Time;durP1;ratioP1;P1;durP2;ratioP2;P2;SDS_P1;SDS_P2;PMS_P1;PMS_P2;Temp;Humidity;BMP_temperature;BMP_pressure;BME280_temperature;BME280_humidity;BME280_pressure;Samples;Min_cycle;Max_cycle;Signal;HPM_P1;HPM_P2
2021/04/02 00:02:06;;;;;;;1.95;0.90;;;6.70;99.90;;;;;;3538350;40;20153;-69
2021/04/02 00:04:32;;;;;;;5.47;1.10;;;6.60;99.90;;;;;;3538209;40;20090;-69
2021/04/02 00:06:58;;;;;;;2.75;0.90;;;6.50;99.90;;;;;;3539170;40;20053;-70
2021/04/02 00:09:23;;;;;;;2.90;1.00;;;6.50;99.90;;;;;;3538489;40;20066;-69
2021/04/02 00:11:49;;;;;;;3.53;0.88;;;6.60;99.90;;;;;;3538870;40;20069;-70
2021/04/02 00:14:15;;;;;;;3.15;0.90;;;6.50;99.90;;;;;;3538950;40;20069;-69
2021/04/02 00:16:40;;;;;;;5.38;0.80;;;6.50;99.90;;;;;;3538570;40;20399;-70
2021/04/02 00:19:06;;;;;;;4.20;1.10;;;6.60;99.90;;;;;;3538703;40;20082;-70
2021/04/02 00:21:32;;;;;;;0.95;0.73;;;6.50;99.90;;;;;;3539748;40;20070;-70
2021/04/02 00:23:57;;;;;;;2.92;0.95;;;6.50;99.90;;;;;;3540903;40;20077;-70
2021/04/02 00:26:25;;;;;;;1.85;0.75;;;6.50;99.90;;;;;;3541672;40;20199;-70
2021/04/02 00:28:52;;;;;;;2.70;0.95;;;6.50;99.90;;;;;;3541477;40;20140;-70
2021/04/02 00:31:19;;;;;;;2.25;1.00;;;6.40;99.90;;;;;;3540989;40;20074;-69
2021/04/02 00:33:45;;;;;;;1.95;0.90;;;6.40;99.90;;;;;;3541389;40;20062;-69
2021/04/02 00:36:11;;;;;;;2.90;1.00;;;6.50;99.90;;;;;;3542221;40;20094;-70
2021/04/02 00:38:36;;;;;;;4.03;1.30;;;6.50;99.90;;;;;;3543746;40;20161;-69
2021/04/02 00:41:04;;;;;;;3.17;1.10;;;6.50;99.90;;;;;;3541421;40;20142;-69
2021/04/02 00:43:39;;;;;;;4.78;1.17;;;6.50;99.90;;;;;;3541765;40;20065;-69
2021/04/02 00:46:05;;;;;;;1.87;0.90;;;6.40;99.90;;;;;;3546904;40;20066;-69
2021/04/02 00:48:31;;;;;;;3.33;1.00;;;6.30;99.90;;;;;;3537183;40;20062;-70
2021/04/02 00:51:00;;;;;;;2.85;1.00;;;6.30;99.90;;;;;;3538354;40;20203;-69
2021/04/02 00:53:31;;;;;;;2.17;0.90;;;6.20;99.90;;;;;;3541604;40;20429;-69
2021/04/02 00:55:58;;;;;;;3.00;1.00;;;6.40;99.90;;;;;;3536474;40;20062;-69
2021/04/02 00:58:27;;;;;;;2.75;1.00;;;6.30;99.90;;;;;;3537047;40;20097;-69
2021/04/02 01:00:53;;;;;;;3.67;1.67;;;6.20;99.90;;;;;;3536952;40;20050;-69
2021/04/02 01:03:21;;;;;;;3.22;1.10;;;6.10;99.90;;;;;;3538809;40;20180;-69
2021/04/02 01:05:49;;;;;;;3.38;1.10;;;6.10;99.90;;;;;;3542744;40;20121;-69
2021/04/02 01:08:26;;;;;;;4.75;1.10;;;6.10;99.90;;;;;;3545617;40;20054;-69
2021/04/02 01:10:52;;;;;;;;;;;6.00;99.90;;;;;;3538984;40;20061;-70
2021/04/02 01:13:21;;;;;;;4.53;2.17;;;6.00;99.90;;;;;;3542947;40;20036;-69
2021/04/02 01:16:09;;;;;;;3.13;1.20;;;5.90;99.90;;;;;;3539448;40;20176;-70
2021/04/02 01:19:11;;;;;;;2.22;1.10;;;5.90;99.90;;;;;;3537321;40;20077;-69
2021/04/02 01:21:47;;;;;;;5.63;1.10;;;5.90;99.90;;;;;;3542894;40;20074;-69
2021/04/02 01:24:23;;;;;;;4.25;1.60;;;5.80;99.90;;;;;;3541380;40;20163;-70
2021/04/02 01:27:05;;;;;;;3.40;1.17;;;5.70;99.90;;;;;;3537147;40;20070;-70
2021/04/02 01:29:43;;;;;;;4.53;1.48;;;5.70;99.90;;;;;;3548596;40;20094;-69
2021/04/02 01:32:22;;;;;;;3.03;1.10;;;5.70;99.90;;;;;;3542690;40;20105;-69
2021/04/02 01:34:52;;;;;;;4.22;1.30;;;5.70;99.90;;;;;;3540470;40;20413;-69
2021/04/02 01:37:38;;;;;;;2.58;1.30;;;5.70;99.90;;;;;;3543163;40;20208;-69
2021/04/02 01:40:08;;;;;;;6.20;1.35;;;5.60;99.90;;;;;;3541951;40;20050;-69
2021/04/02 01:42:38;;;;;;;3.33;1.60;;;5.40;99.90;;;;;;3548804;40;20451;-69
2021/04/02 01:45:06;;;;;;;3.63;1.33;;;5.30;99.90;;;;;;3543178;40;20838;-69
2021/04/02 01:47:34;;;;;;;3.17;1.60;;;5.30;99.90;;;;;;3542883;40;20054;-70
2021/04/02 01:50:01;;;;;;;2.60;1.27;;;5.30;99.90;;;;;;3543359;40;20054;-70
2021/04/02 01:52:29;;;;;;;2.08;1.30;;;5.20;99.90;;;;;;3543563;40;20081;-70
2021/04/02 01:54:56;;;;;;;6.30;1.70;;;5.30;99.90;;;;;;3543589;40;20406;-70
2021/04/02 01:57:23;;;;;;;5.40;1.73;;;5.20;99.90;;;;;;3543808;40;20069;-69
2021/04/02 01:59:53;;;;;;;3.00;1.52;;;5.10;99.90;;;;;;3540943;40;20160;-69
2021/04/02 02:02:21;;;;;;;4.72;1.83;;;5.00;99.90;;;;;;3543231;40;20177;-69
2021/04/02 02:04:49;;;;;;;3.55;1.80;;;4.80;99.90;;;;;;3542381;40;20054;-69
2021/04/02 02:07:17;;;;;;;4.45;1.50;;;4.80;99.90;;;;;;3537202;40;20105;-69
2021/04/02 02:09:57;;;;;;;7.57;1.70;;;4.80;99.90;;;;;;3536849;40;20113;-69
2021/04/02 02:12:40;;;;;;;5.25;1.70;;;4.80;99.90;;;;;;3542189;40;20081;-69
2021/04/02 02:15:27;;;;;;;3.03;1.80;;;4.70;99.90;;;;;;3543265;40;20148;-70
2021/04/02 02:17:57;;;;;;;4.50;1.70;;;4.60;99.90;;;;;;3544093;40;20101;-69
2021/04/02 02:20:24;;;;;;;6.95;2.17;;;4.70;99.90;;;;;;3542082;40;20062;-69
2021/04/02 02:22:56;;;;;;;4.53;1.80;;;4.60;99.90;;;;;;3542746;40;20092;-69
2021/04/02 02:25:25;;;;;;;5.72;2.15;;;4.60;99.90;;;;;;3542726;40;20077;-69
2021/04/02 02:27:59;;;;;;;5.93;1.83;;;4.60;99.90;;;;;;3542438;40;20054;-69
2021/04/02 02:30:28;;;;;;;3.58;1.98;;;4.40;99.90;;;;;;3543962;40;20059;-69
2021/04/02 02:33:00;;;;;;;6.32;1.95;;;4.50;99.90;;;;;;3539252;40;20323;-69
2021/04/02 02:35:29;;;;;;;6.28;2.30;;;4.40;99.90;;;;;;3542383;40;20074;-69
2021/04/02 02:37:57;;;;;;;4.47;2.15;;;4.40;99.90;;;;;;3542454;40;20099;-69
2021/04/02 02:40:28;;;;;;;5.80;2.30;;;4.30;99.90;;;;;;3541903;40;20570;-70
2021/04/02 02:42:55;;;;;;;3.38;2.05;;;4.20;99.90;;;;;;3544435;40;20077;-69
2021/04/02 02:45:23;;;;;;;6.50;2.53;;;4.20;99.90;;;;;;3542666;40;20438;-69
2021/04/02 02:47:49;;;;;;;4.80;2.00;;;4.10;99.90;;;;;;3543311;40;20058;-69
2021/04/02 02:50:23;;;;;;;3.65;2.58;;;4.10;99.90;;;;;;3544813;40;20418;-69
2021/04/02 02:52:50;;;;;;;4.43;2.38;;;4.10;99.90;;;;;;3541628;40;20094;-70
2021/04/02 02:55:20;;;;;;;8.52;3.70;;;4.10;99.90;;;;;;3533285;40;20070;-69
2021/04/02 02:57:48;;;;;;;4.80;2.40;;;4.10;99.90;;;;;;3541921;40;20055;-71
2021/04/02 03:00:19;;;;;;;8.48;2.53;;;4.10;99.90;;;;;;3540716;40;20096;-69
2021/04/02 03:02:52;;;;;;;7.43;3.00;;;4.10;99.90;;;;;;3541709;40;20078;-69
2021/04/02 03:05:22;;;;;;;8.02;2.67;;;4.00;99.90;;;;;;3533505;40;20322;-69
2021/04/02 03:07:53;;;;;;;6.55;2.78;;;4.00;99.90;;;;;;3540543;40;20055;-69
2021/04/02 03:10:20;;;;;;;3.60;2.47;;;4.00;99.90;;;;;;3534883;40;20059;-69
2021/04/02 03:12:48;;;;;;;5.30;2.72;;;4.00;99.90;;;;;;3533507;40;20905;-69
2021/04/02 03:15:18;;;;;;;11.07;3.10;;;4.00;99.90;;;;;;3540683;40;20071;-69
2021/04/02 03:17:49;;;;;;;5.03;2.80;;;3.90;99.90;;;;;;3540938;40;20200;-69
2021/04/02 03:20:16;;;;;;;6.93;3.15;;;3.80;99.90;;;;;;3534355;40;20077;-69
2021/04/02 03:22:43;;;;;;;6.25;3.30;;;3.80;99.90;;;;;;3535786;40;20575;-69
2021/04/02 03:25:20;;;;;;;6.38;2.88;;;3.90;99.90;;;;;;3541928;40;20629;-69
2021/04/02 03:27:53;;;;;;;7.00;2.80;;;3.70;99.90;;;;;;3533086;40;20090;-70
2021/04/02 03:30:29;;;;;;;6.50;2.95;;;3.60;99.90;;;;;;3540560;40;20070;-70
2021/04/02 03:33:11;;;;;;;6.22;3.28;;;3.50;99.90;;;;;;3533886;40;20085;-69
2021/04/02 03:35:38;;;;;;;6.32;3.28;;;3.40;99.90;;;;;;3535613;40;20172;-69
2021/04/02 03:38:10;;;;;;;6.45;3.67;;;3.40;99.90;;;;;;3540690;40;20169;-69
2021/04/02 03:40:37;;;;;;;6.22;3.58;;;3.40;99.90;;;;;;3539673;40;20500;-69
2021/04/02 03:43:06;;;;;;;4.80;3.28;;;3.30;99.90;;;;;;3536212;40;20109;-69
2021/04/02 03:45:34;;;;;;;6.00;3.00;;;3.20;99.90;;;;;;3542502;40;20121;-70
2021/04/02 03:48:02;;;;;;;4.85;3.15;;;3.00;99.90;;;;;;3542352;40;20078;-69
2021/04/02 03:50:33;;;;;;;8.30;3.40;;;2.90;99.90;;;;;;3545892;40;20061;-69
2021/04/02 03:53:07;;;;;;;8.05;3.70;;;2.80;99.90;;;;;;3545044;40;20444;-69
2021/04/02 03:55:39;;;;;;;8.25;4.43;;;2.70;99.90;;;;;;3543324;40;20078;-69
2021/04/02 03:58:08;;;;;;;8.38;3.65;;;2.60;99.90;;;;;;3544143;40;20065;-68
2021/04/02 04:00:42;;;;;;;10.27;4.07;;;2.50;99.90;;;;;;3543293;40;20078;-68
2021/04/02 04:03:14;;;;;;;8.27;3.80;;;2.40;99.90;;;;;;3539767;40;20171;-68
2021/04/02 04:05:41;;;;;;;9.13;4.32;;;2.30;99.90;;;;;;3542856;40;20054;-68
2021/04/02 04:08:12;;;;;;;9.18;4.72;;;2.30;99.90;;;;;;3541378;40;20839;-68
2021/04/02 04:10:40;;;;;;;9.07;4.80;;;2.30;99.90;;;;;;3548981;40;20093;-69
2021/04/02 04:13:09;;;;;;;14.25;4.03;;;2.30;99.90;;;;;;3543655;40;20066;-69
2021/04/02 04:15:37;;;;;;;6.65;4.05;;;2.20;99.90;;;;;;3537137;40;20067;-69
2021/04/02 04:18:05;;;;;;;9.55;4.25;;;2.20;99.90;;;;;;3538923;40;20145;-69
2021/04/02 04:20:32;;;;;;;15.52;4.55;;;2.10;99.90;;;;;;3541554;40;20061;-69
2021/04/02 04:23:07;;;;;;;9.40;4.38;;;2.10;99.90;;;;;;3541892;40;20066;-69
2021/04/02 04:25:34;;;;;;;7.18;4.20;;;2.10;99.90;;;;;;3542768;40;20184;-69
2021/04/02 04:28:02;;;;;;;10.73;4.38;;;2.00;99.90;;;;;;3544012;40;20207;-69
2021/04/02 04:30:30;;;;;;;9.68;4.32;;;1.90;99.90;;;;;;3542592;40;20774;-69
2021/04/02 04:32:59;;;;;;;8.93;4.30;;;1.80;99.90;;;;;;3542397;40;20070;-69
2021/04/02 04:35:25;;;;;;;12.38;4.55;;;1.80;99.90;;;;;;3540539;40;20140;-69
2021/04/02 04:37:52;;;;;;;11.10;5.07;;;1.70;99.90;;;;;;3543931;40;20152;-69
2021/04/02 04:40:22;;;;;;;9.80;4.47;;;1.70;99.90;;;;;;3541845;40;20054;-69
2021/04/02 04:42:48;;;;;;;8.80;5.00;;;1.70;99.90;;;;;;3544134;40;20070;-69
2021/04/02 04:45:21;;;;;;;7.95;4.38;;;1.70;99.90;;;;;;3542663;40;20070;-69
2021/04/02 04:47:47;;;;;;;10.30;4.93;;;1.80;99.90;;;;;;3542629;40;20516;-69
2021/04/02 04:50:14;;;;;;;9.13;4.55;;;1.80;99.90;;;;;;3541628;40;20076;-69
2021/04/02 04:52:47;;;;;;;9.98;4.32;;;1.90;99.90;;;;;;3542854;40;20074;-68
2021/04/02 04:55:14;;;;;;;11.13;5.57;;;1.80;99.90;;;;;;3542296;40;20078;-68
2021/04/02 04:57:42;;;;;;;11.05;5.07;;;1.90;99.90;;;;;;3545453;40;20209;-68
2021/04/02 05:00:09;;;;;;;10.15;5.90;;;1.90;99.90;;;;;;3543471;40;20318;-69
2021/04/02 05:02:37;;;;;;;8.68;4.88;;;2.00;99.90;;;;;;3542909;40;20495;-69
2021/04/02 05:05:05;;;;;;;14.00;5.65;;;2.00;99.90;;;;;;3544153;40;20086;-68
2021/04/02 05:07:35;;;;;;;12.45;5.88;;;2.10;99.90;;;;;;3541646;40;20059;-70
2021/04/02 05:10:02;;;;;;;11.20;5.38;;;2.10;99.90;;;;;;3541606;40;20077;-70
2021/04/02 05:12:28;;;;;;;8.50;5.05;;;2.20;99.90;;;;;;3541946;40;21167;-70
2021/04/02 05:14:57;;;;;;;11.65;5.40;;;2.20;99.90;;;;;;3542191;40;20065;-69
2021/04/02 05:17:23;;;;;;;12.73;5.88;;;2.40;99.90;;;;;;3541976;40;20175;-70
2021/04/02 05:19:51;;;;;;;10.18;5.13;;;2.60;99.90;;;;;;3540118;40;20050;-70
2021/04/02 05:22:16;;;;;;;17.83;6.10;;;2.70;99.90;;;;;;3540211;40;20151;-70
2021/04/02 05:24:42;;;;;;;12.63;6.35;;;2.80;99.90;;;;;;3540113;40;20075;-70
2021/04/02 05:27:08;;;;;;;15.32;6.38;;;2.90;99.90;;;;;;3541919;40;20316;-70
2021/04/02 05:29:34;;;;;;;11.38;6.45;;;3.10;99.90;;;;;;3540073;40;20264;-70
2021/04/02 05:32:00;;;;;;;14.98;6.88;;;3.30;99.90;;;;;;3543034;40;20166;-71
2021/04/02 05:34:26;;;;;;;9.77;6.07;;;3.50;99.90;;;;;;3548303;40;20046;-70
2021/04/02 05:36:52;;;;;;;14.88;7.30;;;3.60;99.90;;;;;;3541686;40;20080;-70
2021/04/02 05:39:17;;;;;;;12.10;6.63;;;3.90;99.90;;;;;;3545363;40;20156;-70
2021/04/02 05:42:04;;;;;;;12.88;6.95;;;4.00;99.90;;;;;;3543207;40;20076;-69
2021/04/02 05:44:32;;;;;;;10.85;5.65;;;4.20;99.90;;;;;;3544477;40;20074;-70
2021/04/02 05:47:01;;;;;;;13.07;6.45;;;4.20;99.90;;;;;;3542610;40;20062;-70
2021/04/02 05:49:27;;;;;;;10.27;5.63;;;4.20;99.90;;;;;;3542452;40;20074;-70
2021/04/02 05:51:55;;;;;;;10.25;5.55;;;4.40;99.90;;;;;;3546903;40;20611;-70
2021/04/02 05:54:34;;;;;;;13.75;6.47;;;4.40;99.90;;;;;;3546722;40;20070;-70
2021/04/02 05:57:00;;;;;;;13.25;6.78;;;4.30;99.90;;;;;;3550994;40;20066;-70
2021/04/02 05:59:26;;;;;;;18.02;7.35;;;4.40;99.90;;;;;;3545485;40;20070;-71
2021/04/02 06:01:52;;;;;;;10.45;6.10;;;4.50;99.90;;;;;;3543944;40;20347;-70
2021/04/02 06:04:18;;;;;;;14.13;7.55;;;4.60;99.90;;;;;;3546999;40;20065;-70
2021/04/02 06:06:45;;;;;;;15.50;7.00;;;4.40;99.90;;;;;;3541948;40;20874;-70
2021/04/02 06:09:12;;;;;;;10.75;5.70;;;4.50;99.90;;;;;;3542164;40;20505;-70
2021/04/02 06:11:38;;;;;;;8.90;5.38;;;4.60;99.90;;;;;;3544219;40;20062;-70
2021/04/02 06:14:04;;;;;;;10.63;5.47;;;4.70;99.90;;;;;;3542752;40;20085;-71
2021/04/02 06:16:31;;;;;;;9.40;5.07;;;4.70;99.90;;;;;;3542008;40;20062;-70
2021/04/02 06:19:04;;;;;;;9.90;5.43;;;4.90;99.90;;;;;;3540241;40;20062;-70
2021/04/02 06:21:30;;;;;;;7.72;5.30;;;4.90;99.90;;;;;;3540627;40;20581;-71
2021/04/02 06:23:56;;;;;;;11.93;5.57;;;5.00;99.90;;;;;;3546122;40;20058;-70
2021/04/02 06:26:21;;;;;;;7.70;5.00;;;5.10;99.90;;;;;;3539962;40;20686;-70
2021/04/02 06:28:47;;;;;;;11.45;5.28;;;5.20;99.90;;;;;;3545564;40;20403;-70
2021/04/02 06:31:15;;;;;;;11.27;5.82;;;5.10;99.90;;;;;;3541645;40;20089;-70
2021/04/02 06:33:52;;;;;;;14.95;5.72;;;5.30;99.90;;;;;;3546074;40;20070;-71
2021/04/02 06:36:21;;;;;;;12.05;6.22;;;5.30;99.90;;;;;;3539711;40;20070;-70
2021/04/02 06:38:54;;;;;;;9.93;5.63;;;5.30;99.90;;;;;;3542141;40;20078;-70
2021/04/02 06:41:20;;;;;;;11.10;5.63;;;5.10;99.90;;;;;;3540371;40;20199;-71
2021/04/02 06:43:48;;;;;;;9.93;5.00;;;4.90;99.90;;;;;;3542347;40;20088;-71
2021/04/02 06:46:17;;;;;;;12.15;6.03;;;4.80;99.90;;;;;;3546724;40;20100;-70
2021/04/02 06:48:43;;;;;;;10.10;5.55;;;5.30;99.90;;;;;;3546584;40;20082;-70
2021/04/02 06:51:20;;;;;;;11.05;6.18;;;5.50;99.90;;;;;;3542538;40;20086;-70
2021/04/02 06:53:49;;;;;;;12.75;6.13;;;5.60;99.90;;;;;;3544501;40;20150;-70
2021/04/02 06:56:16;;;;;;;10.38;5.93;;;5.70;99.90;;;;;;3543416;40;20072;-70
2021/04/02 06:58:44;;;;;;;10.95;6.20;;;5.70;99.90;;;;;;3544013;40;20172;-70
2021/04/02 07:01:14;;;;;;;10.20;6.60;;;5.60;99.90;;;;;;3541475;40;20063;-71
2021/04/02 07:03:43;;;;;;;11.73;6.25;;;5.50;99.90;;;;;;3541985;40;20096;-70
2021/04/02 07:06:09;;;;;;;15.48;6.57;;;5.50;99.90;;;;;;3539326;40;20096;-70
2021/04/02 07:08:38;;;;;;;13.77;6.70;;;5.40;99.90;;;;;;3540653;40;20076;-70
2021/04/02 07:11:06;;;;;;;18.20;8.95;;;5.50;99.90;;;;;;3540102;40;20050;-70
2021/04/02 07:13:35;;;;;;;10.82;5.82;;;5.50;99.90;;;;;;3536900;40;20063;-71
2021/04/02 07:16:02;;;;;;;11.70;6.28;;;5.50;99.90;;;;;;3538489;40;20789;-70
2021/04/02 07:18:28;;;;;;;10.98;6.38;;;5.50;99.90;;;;;;3536959;40;20431;-71
2021/04/02 07:20:54;;;;;;;13.13;7.28;;;5.50;99.90;;;;;;3538022;40;20063;-70
2021/04/02 07:23:20;;;;;;;12.55;6.53;;;5.40;99.90;;;;;;3539289;40;20071;-71
2021/04/02 07:25:47;;;;;;;8.65;6.07;;;5.30;99.90;;;;;;3539777;40;20054;-71
2021/04/02 07:28:12;;;;;;;10.27;6.63;;;5.30;99.90;;;;;;3536839;40;20081;-71
2021/04/02 07:30:39;;;;;;;10.00;6.03;;;5.30;99.90;;;;;;3540165;40;20186;-71
2021/04/02 07:33:10;;;;;;;10.02;5.70;;;5.30;99.90;;;;;;3541787;40;20180;-71
2021/04/02 07:35:37;;;;;;;11.13;5.60;;;5.40;99.90;;;;;;3539199;40;20077;-70
2021/04/02 07:38:04;;;;;;;8.65;5.55;;;5.40;99.90;;;;;;3538622;40;20059;-70
2021/04/02 07:40:33;;;;;;;11.85;5.57;;;5.30;99.90;;;;;;3540281;40;20176;-73
2021/04/02 07:43:03;;;;;;;13.65;6.63;;;5.40;99.90;;;;;;3539389;40;20062;-70
2021/04/02 07:45:32;;;;;;;10.93;6.20;;;5.30;99.90;;;;;;3538155;40;20420;-70
2021/04/02 07:48:21;;;;;;;10.25;6.22;;;5.30;99.90;;;;;;3539022;40;20058;-71
2021/04/02 07:50:51;;;;;;;9.07;6.35;;;5.30;99.90;;;;;;3539047;40;20498;-70
2021/04/02 07:53:40;;;;;;;11.90;5.70;;;5.30;99.90;;;;;;3541543;40;20544;-70
2021/04/02 07:56:17;;;;;;;9.18;6.13;;;5.60;99.90;;;;;;3539396;40;20062;-70
2021/04/02 07:58:51;;;;;;;11.07;6.78;;;5.70;99.90;;;;;;3538475;40;20059;-70
2021/04/02 08:01:22;;;;;;;11.75;6.80;;;5.90;99.90;;;;;;3537589;40;20066;-70
2021/04/02 08:03:49;;;;;;;12.10;6.38;;;5.80;99.90;;;;;;3537950;40;20073;-70
2021/04/02 08:06:33;;;;;;;15.15;8.38;;;5.80;99.90;;;;;;3541673;40;20086;-70
2021/04/02 08:09:01;;;;;;;13.27;8.68;;;5.80;99.90;;;;;;3538759;40;20680;-70
2021/04/02 08:11:31;;;;;;;13.40;8.23;;;5.80;99.90;;;;;;3537713;40;20176;-70
2021/04/02 08:14:00;;;;;;;18.05;11.48;;;5.90;99.90;;;;;;3539904;40;20448;-70
2021/04/02 08:16:33;;;;;;;15.65;8.95;;;6.00;99.90;;;;;;3544489;40;20798;-69
2021/04/02 08:19:15;;;;;;;16.50;10.18;;;6.00;99.90;;;;;;3537634;40;20508;-70
2021/04/02 08:21:45;;;;;;;12.00;7.38;;;6.10;99.90;;;;;;3538315;40;20070;-70
2021/04/02 08:24:13;;;;;;;10.65;6.70;;;6.20;99.90;;;;;;3537748;40;20075;-70
2021/04/02 08:26:41;;;;;;;8.30;5.80;;;6.30;99.90;;;;;;3539945;40;20078;-70
2021/04/02 08:29:09;;;;;;;9.30;6.07;;;6.30;99.90;;;;;;3540489;40;20204;-70
2021/04/02 08:31:38;;;;;;;11.43;7.03;;;6.30;99.90;;;;;;3537209;40;20104;-69
2021/04/02 08:34:04;;;;;;;15.30;9.25;;;6.60;99.90;;;;;;3537259;40;20078;-70
2021/04/02 08:36:30;;;;;;;12.98;6.50;;;6.70;99.90;;;;;;3538659;40;20764;-69
2021/04/02 08:38:56;;;;;;;10.70;5.95;;;6.60;99.90;;;;;;3537850;40;20192;-70
2021/04/02 08:41:25;;;;;;;12.07;7.07;;;6.50;99.90;;;;;;3536830;40;20063;-70
2021/04/02 08:43:52;;;;;;;9.60;6.30;;;6.40;99.90;;;;;;3537700;40;20062;-70
2021/04/02 08:46:18;;;;;;;8.20;4.90;;;6.40;99.90;;;;;;3539974;40;20062;-70
2021/04/02 08:48:45;;;;;;;13.23;8.48;;;6.60;99.90;;;;;;3539170;40;20157;-70
2021/04/02 08:51:21;;;;;;;11.25;6.65;;;6.70;99.90;;;;;;3539439;40;20388;-70
2021/04/02 08:53:46;;;;;;;;;;;6.80;99.90;;;;;;3542916;40;21061;-69
2021/04/02 08:56:18;;;;;;;11.63;7.10;;;6.90;99.90;;;;;;3537994;40;19941;-70
2021/04/02 08:58:45;;;;;;;8.52;5.55;;;7.10;99.90;;;;;;3535770;40;20813;-70
2021/04/02 09:01:16;;;;;;;6.88;5.10;;;7.30;99.90;;;;;;3538803;40;20579;-69
2021/04/02 09:03:43;;;;;;;8.45;5.13;;;7.30;99.90;;;;;;3541267;40;20059;-69
2021/04/02 09:06:10;;;;;;;12.90;7.30;;;7.40;99.90;;;;;;3540304;40;20073;-69
2021/04/02 09:08:36;;;;;;;16.55;10.90;;;7.60;99.90;;;;;;3540541;40;20120;-69
2021/04/02 09:11:06;;;;;;;10.52;6.65;;;7.80;99.90;;;;;;3541457;40;20168;-70
2021/04/02 09:13:38;;;;;;;6.35;4.32;;;7.70;99.90;;;;;;3540543;40;20058;-70
2021/04/02 09:16:11;;;;;;;5.90;4.18;;;7.80;99.90;;;;;;3539897;40;20823;-70
2021/04/02 09:18:54;;;;;;;9.77;5.25;;;7.80;99.90;;;;;;3539999;40;20783;-70
2021/04/02 09:21:21;;;;;;;7.70;4.70;;;7.80;99.90;;;;;;3537156;40;20256;-69
2021/04/02 09:23:51;;;;;;;9.20;5.13;;;8.10;99.90;;;;;;3539414;40;20211;-69
2021/04/02 09:26:18;;;;;;;7.18;4.88;;;8.20;99.90;;;;;;3539757;40;20082;-70
2021/04/02 09:28:45;;;;;;;6.80;4.88;;;8.30;99.90;;;;;;3539307;40;20054;-69
2021/04/02 09:31:24;;;;;;;9.10;5.10;;;8.30;99.90;;;;;;3538361;40;20066;-69
2021/04/02 09:33:55;;;;;;;8.73;5.45;;;8.70;99.90;;;;;;3538139;40;20757;-69
2021/04/02 09:36:22;;;;;;;5.95;4.50;;;9.00;99.90;;;;;;3537157;40;20078;-69
2021/04/02 09:38:49;;;;;;;7.43;4.63;;;9.00;99.90;;;;;;3539664;40;20086;-69
2021/04/02 09:41:22;;;;;;;7.32;4.90;;;9.30;99.90;;;;;;3537767;40;20168;-69
2021/04/02 09:43:53;;;;;;;7.30;4.60;;;9.20;99.90;;;;;;3543379;40;20192;-70
2021/04/02 09:46:34;;;;;;;8.10;5.18;;;9.20;99.90;;;;;;3536520;40;20312;-69
2021/04/02 09:49:21;;;;;;;8.18;5.15;;;9.30;99.90;;;;;;3541452;40;20061;-70
2021/04/02 09:51:55;;;;;;;6.78;4.45;;;9.40;99.90;;;;;;3537167;40;20071;-70
2021/04/02 09:54:24;;;;;;;12.52;8.77;;;9.70;99.90;;;;;;3538908;40;20081;-69
2021/04/02 09:56:51;;;;;;;15.88;10.05;;;9.80;99.90;;;;;;3542188;40;20410;-69
2021/04/02 09:59:17;;;;;;;9.32;5.43;;;10.20;99.90;;;;;;3542073;40;20177;-69
2021/04/02 10:01:44;;;;;;;9.70;5.85;;;10.30;99.90;;;;;;3539169;40;20176;-68
2021/04/02 10:04:11;;;;;;;9.85;6.10;;;10.40;99.90;;;;;;3541094;40;20070;-68
2021/04/02 10:06:38;;;;;;;7.57;5.20;;;10.60;99.90;;;;;;3542519;40;20160;-68
2021/04/02 10:09:06;;;;;;;9.30;5.45;;;10.70;99.60;;;;;;3538741;40;20552;-68
2021/04/02 10:11:33;;;;;;;29.92;17.83;;;10.80;98.90;;;;;;3541608;40;20175;-68
2021/04/02 10:13:59;;;;;;;13.27;8.02;;;10.80;99.90;;;;;;3538994;40;20193;-68
2021/04/02 10:16:25;;;;;;;9.73;6.40;;;11.20;98.70;;;;;;3539129;40;20106;-68
2021/04/02 10:18:51;;;;;;;7.22;4.80;;;11.20;98.10;;;;;;3542749;40;20078;-68
2021/04/02 10:21:19;;;;;;;12.68;8.23;;;11.50;97.80;;;;;;3538766;40;20066;-68
2021/04/02 10:23:46;;;;;;;6.88;4.47;;;11.60;96.50;;;;;;3542999;40;20414;-68
2021/04/02 10:26:13;;;;;;;6.72;4.60;;;11.80;96.50;;;;;;3545837;40;20765;-68
2021/04/02 10:28:39;;;;;;;6.40;3.88;;;11.90;93.40;;;;;;3537653;40;20077;-68
2021/04/02 10:31:05;;;;;;;5.28;2.95;;;12.00;92.60;;;;;;3540015;40;20066;-69
2021/04/02 10:33:31;;;;;;;7.53;3.28;;;12.00;85.50;;;;;;3543413;40;20069;-68
2021/04/02 10:35:56;;;;;;;5.47;2.90;;;11.80;85.50;;;;;;3543908;40;20062;-68
2021/04/02 10:38:22;;;;;;;5.30;3.40;;;12.00;84.80;;;;;;3540453;40;20071;-68
2021/04/02 10:40:48;;;;;;;4.63;3.42;;;12.00;86.50;;;;;;3541760;40;20063;-68
2021/04/02 10:43:14;;;;;;;6.15;3.30;;;12.20;85.20;;;;;;3543500;40;20106;-68
2021/04/02 10:45:40;;;;;;;6.07;3.00;;;12.00;85.20;;;;;;3544103;40;20074;-68
2021/04/02 10:48:07;;;;;;;4.53;2.83;;;12.00;83.30;;;;;;3542858;40;20152;-69
2021/04/02 10:50:33;;;;;;;4.35;2.83;;;12.20;84.30;;;;;;3534577;40;20081;-69
2021/04/02 10:52:59;;;;;;;5.35;2.60;;;12.30;85.60;;;;;;3536863;40;20532;-68
2021/04/02 10:55:24;;;;;;;3.35;2.38;;;12.50;81.80;;;;;;3539655;40;20156;-69
2021/04/02 10:57:51;;;;;;;3.45;2.30;;;12.40;79.10;;;;;;3542618;40;20089;-69
2021/04/02 11:00:18;;;;;;;2.70;1.85;;;12.40;81.40;;;;;;3539937;40;20070;-69
2021/04/02 11:02:44;;;;;;;4.30;1.98;;;12.60;78.20;;;;;;3539364;40;20062;-69
2021/04/02 11:05:11;;;;;;;3.55;2.17;;;12.80;75.40;;;;;;3537980;40;20061;-69
2021/04/02 11:07:37;;;;;;;3.67;2.17;;;12.70;75.50;;;;;;3542272;40;20168;-68
2021/04/02 11:10:06;;;;;;;4.40;1.70;;;12.80;74.60;;;;;;3544477;40;20066;-68
2021/04/02 11:12:32;;;;;;;2.35;1.55;;;12.60;74.00;;;;;;3541758;40;20497;-69
2021/04/02 11:14:58;;;;;;;3.13;1.90;;;12.80;73.10;;;;;;3544516;40;20057;-69
2021/04/02 11:17:25;;;;;;;3.10;1.50;;;12.90;72.10;;;;;;3548241;40;20058;-68
2021/04/02 11:19:52;;;;;;;5.15;1.75;;;12.80;71.00;;;;;;3542425;40;20396;-69
2021/04/02 11:22:18;;;;;;;2.53;1.40;;;13.10;70.20;;;;;;3547933;40;20092;-68
2021/04/02 11:24:45;;;;;;;2.33;1.40;;;13.30;69.70;;;;;;3541608;40;20648;-68
2021/04/02 11:27:11;;;;;;;3.33;1.55;;;13.60;69.40;;;;;;3545456;40;20058;-68
2021/04/02 11:29:37;;;;;;;3.13;1.80;;;13.70;65.50;;;;;;3545431;40;20140;-69
2021/04/02 11:32:13;;;;;;;3.28;1.52;;;13.70;64.10;;;;;;3547067;40;20424;-68
2021/04/02 11:34:39;;;;;;;3.22;1.40;;;14.00;64.30;;;;;;3543349;40;20929;-69
2021/04/02 11:37:05;;;;;;;2.78;1.20;;;14.20;61.50;;;;;;3544740;40;20191;-69
2021/04/02 11:39:32;;;;;;;3.80;1.40;;;14.20;60.90;;;;;;3541906;40;20062;-73
2021/04/02 11:41:58;;;;;;;2.38;1.10;;;14.60;61.60;;;;;;3547563;40;20101;-69
2021/04/02 11:44:24;;;;;;;1.40;1.13;;;15.00;58.20;;;;;;3547322;40;20075;-69
2021/04/02 11:46:51;;;;;;;2.55;1.10;;;15.20;59.30;;;;;;3545958;40;20109;-69
2021/04/02 11:49:17;;;;;;;1.15;1.00;;;15.50;57.10;;;;;;3545903;40;20089;-69
2021/04/02 11:51:43;;;;;;;2.38;1.27;;;15.60;57.10;;;;;;3541056;40;20071;-69
2021/04/02 11:54:09;;;;;;;4.55;2.40;;;15.60;56.90;;;;;;3547129;40;20093;-70
2021/04/02 11:56:35;;;;;;;1.73;1.05;;;15.90;55.90;;;;;;3546191;40;20168;-70
2021/04/02 11:59:01;;;;;;;8.98;2.15;;;16.30;56.10;;;;;;3544205;40;20065;-69
2021/04/02 12:01:27;;;;;;;2.53;0.90;;;16.20;55.40;;;;;;3543309;40;20074;-69
2021/04/02 12:03:52;;;;;;;3.28;1.00;;;16.40;52.90;;;;;;3547570;40;20338;-69
2021/04/02 12:06:18;;;;;;;1.20;0.60;;;16.60;53.60;;;;;;3539053;40;20184;-70
2021/04/02 12:08:44;;;;;;;2.63;0.90;;;16.90;51.40;;;;;;3543127;40;20059;-69
2021/04/02 12:11:09;;;;;;;3.70;1.60;;;17.10;51.00;;;;;;3546865;40;20059;-70
2021/04/02 12:13:35;;;;;;;2.20;1.35;;;16.80;51.40;;;;;;3538016;40;20212;-69
2021/04/02 12:16:01;;;;;;;1.00;0.80;;;16.70;51.20;;;;;;3540450;40;20161;-69
2021/04/02 12:18:27;;;;;;;0.63;0.60;;;16.70;51.30;;;;;;3546470;40;20062;-69
2021/04/02 12:20:52;;;;;;;2.03;0.80;;;16.90;50.10;;;;;;3546245;40;20090;-70
2021/04/02 12:23:19;;;;;;;1.52;0.75;;;17.10;50.10;;;;;;3543622;40;20070;-69
2021/04/02 12:25:45;;;;;;;1.13;0.73;;;16.80;49.20;;;;;;3542838;40;20081;-69
2021/04/02 12:28:10;;;;;;;2.03;0.80;;;17.00;50.70;;;;;;3540607;40;20208;-70
2021/04/02 12:30:37;;;;;;;1.25;0.52;;;17.50;50.60;;;;;;3542621;40;20066;-70
2021/04/02 12:33:04;;;;;;;2.72;0.80;;;17.30;50.00;;;;;;3543019;40;20075;-70
2021/04/02 12:35:31;;;;;;;1.55;0.90;;;17.60;48.80;;;;;;3543799;40;20059;-70
2021/04/02 12:37:57;;;;;;;0.70;0.60;;;17.60;48.80;;;;;;3546616;40;20484;-69
2021/04/02 12:40:24;;;;;;;4.70;0.85;;;17.70;49.40;;;;;;3544259;40;20058;-71
2021/04/02 12:42:50;;;;;;;2.33;0.80;;;17.30;48.40;;;;;;3545123;40;20355;-70
2021/04/02 12:45:17;;;;;;;1.42;0.85;;;16.70;49.20;;;;;;3547483;40;20403;-70
2021/04/02 12:47:44;;;;;;;1.17;0.88;;;16.70;49.00;;;;;;3545251;40;20065;-69
2021/04/02 12:50:21;;;;;;;2.63;1.25;;;16.40;49.80;;;;;;3543514;40;20076;-69
2021/04/02 12:52:47;;;;;;;6.20;1.17;;;16.20;50.60;;;;;;3542275;40;20093;-70
2021/04/02 12:55:19;;;;;;;1.92;1.23;;;16.00;52.30;;;;;;3540967;40;20062;-70
2021/04/02 12:57:45;;;;;;;4.18;1.05;;;16.20;51.60;;;;;;3542016;40;20073;-71
2021/04/02 13:00:14;;;;;;;6.55;1.35;;;16.50;51.80;;;;;;3540276;40;20160;-71
2021/04/02 13:02:40;;;;;;;3.05;1.40;;;16.30;50.90;;;;;;3537026;40;20076;-70